Test XHTML 1.0 Strict Page for WU-History Testing
Station Historical Data
Daily Summary for May 19, 2017 Units:  Both    English   Metric
« Previous Day
Next Day »
Daily Weekly Monthly Yearly Custom
  High: Low: Average:
Temperature: 61.2 °F /  16.2 °C 48.2 °F /  9 °C 52.8 °F /  11.6 °C
Dew Point: 52.7 °F /  11.5 °C 46.1 °F /  7.8 °C 49.7 °F /  9.8 °C
Humidity: 100 % 58 % 90 %
Wind Speed: 7.2 mph /  11.6 km/h - 0.3 mph /  0.5 km/h
Wind Gust: 7.2 mph /  11.6 km/h - -
Wind:- - SSW
Pressure: 29.93 in /  1013.4 hPa 29.86 in /  1011.1 hPa -
Precipitation: 0.03 in /  0.76 mm    
Historical Graphs
 
 
Weather-Above Climate History
Untitled
Tabular Data for May 19, 2017
Time Temperature Dew Point Pressure Wind Wind Speed Wind Gust Humidity Rainfall Rate (Hourly) solar Conditions
00:02 50.0 °F /  10 °C 50.0 °F /  10 °C 29.90 in /  1012.4 hPa Calm     100 % 0.00 in /  0 mm 20.0 W/m2 OVC
00:07 50.0 °F /  10 °C 50.0 °F /  10 °C 29.90 in /  1012.4 hPa Calm     100 % 0.00 in /  0 mm 0.0 W/m2 OVC
00:12 50.0 °F /  10 °C 50.0 °F /  10 °C 29.89 in /  1012.1 hPa Calm     100 % 0.00 in /  0 mm 0.0 W/m2 OVC
00:17 50.0 °F /  10 °C 50.0 °F /  10 °C 29.90 in /  1012.4 hPa Calm     100 % 0.01 in /  0.25 mm 17.5 W/m2 RA
00:22 50.0 °F /  10 °C 50.0 °F /  10 °C 29.90 in /  1012.4 hPa Calm     100 % 0.01 in /  0.25 mm 0.0 W/m2 RA
00:27 50.0 °F /  10 °C 50.0 °F /  10 °C 29.89 in /  1012.1 hPa Calm     100 % 0.02 in /  0.51 mm 0.0 W/m2 RA
00:32 50.0 °F /  10 °C 50.0 °F /  10 °C 29.89 in /  1012.1 hPa Calm     100 % 0.02 in /  0.51 mm 17.5 W/m2 RA
00:37 50.0 °F /  10 °C 50.0 °F /  10 °C 29.89 in /  1012.1 hPa Calm     100 % 0.02 in /  0.51 mm 17.5 W/m2 OVC
00:42 50.0 °F /  10 °C 50.0 °F /  10 °C 29.89 in /  1012.1 hPa Calm     100 % 0.02 in /  0.51 mm 0.0 W/m2 OVC
00:47 50.0 °F /  10 °C 50.0 °F /  10 °C 29.89 in /  1012.1 hPa Calm     100 % 0.02 in /  0.51 mm 17.5 W/m2 OVC
00:52 50.0 °F /  10 °C 50.0 °F /  10 °C 29.89 in /  1012.1 hPa Calm     100 % 0.02 in /  0.51 mm 17.5 W/m2 OVC
00:57 49.8 °F /  9.9 °C 49.8 °F /  9.9 °C 29.89 in /  1012.1 hPa Calm     100 % 0.02 in /  0.51 mm 0.0 W/m2 OVC
01:02 50.0 °F /  10 °C 50.0 °F /  10 °C 29.89 in /  1012.1 hPa Calm     100 % 0.00 in /  0 mm 15.0 W/m2 RA
01:07 49.8 °F /  9.9 °C 49.8 °F /  9.9 °C 29.89 in /  1012.1 hPa Calm     100 % 0.00 in /  0 mm 20.0 W/m2 RA
01:12 49.8 °F /  9.9 °C 49.8 °F /  9.9 °C 29.89 in /  1012.1 hPa Calm     100 % 0.00 in /  0 mm 0.0 W/m2 OVC
01:17 49.8 °F /  9.9 °C 49.8 °F /  9.9 °C 29.89 in /  1012.1 hPa Calm     100 % 0.01 in /  0.25 mm 20.0 W/m2 OVC
01:22 49.8 °F /  9.9 °C 49.8 °F /  9.9 °C 29.89 in /  1012.1 hPa Calm     100 % 0.01 in /  0.25 mm 17.5 W/m2 OVC
01:28 49.8 °F /  9.9 °C 49.8 °F /  9.9 °C 29.89 in /  1012.1 hPa Calm     100 % 0.00 in /  0 mm 0.0 W/m2 OVC
01:33 49.8 °F /  9.9 °C 49.8 °F /  9.9 °C 29.89 in /  1012.1 hPa Calm     100 % 0.00 in /  0 mm 17.5 W/m2 OVC
01:38 49.8 °F /  9.9 °C 49.8 °F /  9.9 °C 29.88 in /  1011.7 hPa Calm     100 % 0.00 in /  0 mm 20.0 W/m2 OVC
01:43 49.6 °F /  9.8 °C 49.6 °F /  9.8 °C 29.88 in /  1011.7 hPa Calm     100 % 0.00 in /  0 mm 0.0 W/m2 OVC
01:48 49.6 °F /  9.8 °C 49.6 °F /  9.8 °C 29.88 in /  1011.7 hPa Calm     100 % 0.00 in /  0 mm 17.5 W/m2 OVC
01:53 49.5 °F /  9.7 °C 49.5 °F /  9.7 °C 29.88 in /  1011.7 hPa Calm     100 % 0.01 in /  0.25 mm 20.0 W/m2 RA
01:58 49.5 °F /  9.7 °C 49.5 °F /  9.7 °C 29.88 in /  1011.7 hPa Calm     100 % 0.01 in /  0.25 mm 20.0 W/m2 RA
02:03 49.5 °F /  9.7 °C 49.5 °F /  9.7 °C 29.89 in /  1012.1 hPa Calm     100 % 0.01 in /  0.25 mm 0.0 W/m2
02:08 49.5 °F /  9.7 °C 49.5 °F /  9.7 °C 29.88 in /  1011.7 hPa Calm     100 % 0.01 in /  0.25 mm 20.0 W/m2 OVC
02:13 49.5 °F /  9.7 °C 49.5 °F /  9.7 °C 29.88 in /  1011.7 hPa Calm     100 % 0.01 in /  0.25 mm 15.0 W/m2 OVC
02:18 49.5 °F /  9.7 °C 49.5 °F /  9.7 °C 29.88 in /  1011.7 hPa Calm     100 % 0.01 in /  0.25 mm 0.0 W/m2 OVC
02:23 49.5 °F /  9.7 °C 49.5 °F /  9.7 °C 29.88 in /  1011.7 hPa Calm     100 % 0.01 in /  0.25 mm 17.5 W/m2 OVC
02:28 49.5 °F /  9.7 °C 49.5 °F /  9.7 °C 29.88 in /  1011.7 hPa Calm     100 % 0.01 in /  0.25 mm 17.5 W/m2 OVC
02:33 49.5 °F /  9.7 °C 49.5 °F /  9.7 °C 29.88 in /  1011.7 hPa Calm     100 % 0.02 in /  0.51 mm 0.0 W/m2 RA
02:38 49.5 °F /  9.7 °C 49.5 °F /  9.7 °C 29.88 in /  1011.7 hPa Calm     100 % 0.02 in /  0.51 mm 17.5 W/m2 RA
02:43 49.3 °F /  9.6 °C 49.3 °F /  9.6 °C 29.88 in /  1011.7 hPa Calm     100 % 0.02 in /  0.51 mm 20.0 W/m2 OVC
02:49 49.3 °F /  9.6 °C 49.3 °F /  9.6 °C 29.88 in /  1011.7 hPa Calm     100 % 0.01 in /  0.25 mm 0.0 W/m2 OVC
02:54 49.3 °F /  9.6 °C 49.3 °F /  9.6 °C 29.88 in /  1011.7 hPa Calm     100 % 0.01 in /  0.25 mm 0.0 W/m2 OVC
02:59 49.1 °F /  9.5 °C 49.1 °F /  9.5 °C 29.88 in /  1011.7 hPa Calm     100 % 0.01 in /  0.25 mm 17.5 W/m2 OVC
03:04 49.1 °F /  9.5 °C 49.1 °F /  9.5 °C 29.88 in /  1011.7 hPa Calm     100 % 0.01 in /  0.25 mm 0.0 W/m2 OVC
03:09 49.1 °F /  9.5 °C 49.1 °F /  9.5 °C 29.87 in /  1011.4 hPa Calm     100 % 0.01 in /  0.25 mm 0.0 W/m2 OVC
03:14 49.1 °F /  9.5 °C 49.1 °F /  9.5 °C 29.87 in /  1011.4 hPa Calm     100 % 0.01 in /  0.25 mm 15.0 W/m2 OVC
03:19 48.9 °F /  9.4 °C 48.9 °F /  9.4 °C 29.87 in /  1011.4 hPa Calm     100 % 0.01 in /  0.25 mm 0.0 W/m2 OVC
03:24 49.1 °F /  9.5 °C 49.1 °F /  9.5 °C 29.87 in /  1011.4 hPa Calm     100 % 0.01 in /  0.25 mm 0.0 W/m2 OVC
03:29 48.9 °F /  9.4 °C 48.9 °F /  9.4 °C 29.87 in /  1011.4 hPa Calm     100 % 0.01 in /  0.25 mm 0.0 W/m2 OVC
03:34 48.9 °F /  9.4 °C 48.9 °F /  9.4 °C 29.88 in /  1011.7 hPa Calm     100 % 0.00 in /  0 mm 17.5 W/m2 OVC
03:39 48.9 °F /  9.4 °C 48.9 °F /  9.4 °C 29.88 in /  1011.7 hPa Calm     100 % 0.00 in /  0 mm 0.0 W/m2 OVC
03:44 48.9 °F /  9.4 °C 48.9 °F /  9.4 °C 29.88 in /  1011.7 hPa Calm     100 % 0.00 in /  0 mm 0.0 W/m2 OVC
03:49 48.9 °F /  9.4 °C 48.9 °F /  9.4 °C 29.88 in /  1011.7 hPa Calm     100 % 0.00 in /  0 mm 15.0 W/m2 OVC
03:54 48.9 °F /  9.4 °C 48.9 °F /  9.4 °C 29.87 in /  1011.4 hPa Calm     100 % 0.00 in /  0 mm 0.0 W/m2 OVC
03:59 48.9 °F /  9.4 °C 48.9 °F /  9.4 °C 29.87 in /  1011.4 hPa Calm     100 % 0.00 in /  0 mm 0.0 W/m2 OVC
04:04 48.9 °F /  9.4 °C 48.9 °F /  9.4 °C 29.87 in /  1011.4 hPa Calm     100 % 0.00 in /  0 mm 17.5 W/m2 OVC
04:09 48.9 °F /  9.4 °C 48.9 °F /  9.4 °C 29.87 in /  1011.4 hPa Calm     100 % 0.00 in /  0 mm 0.0 W/m2 OVC
04:14 48.7 °F /  9.3 °C 48.7 °F /  9.3 °C 29.87 in /  1011.4 hPa Calm     100 % 0.00 in /  0 mm 0.0 W/m2 OVC
04:19 48.7 °F /  9.3 °C 48.7 °F /  9.3 °C 29.87 in /  1011.4 hPa Calm     100 % 0.00 in /  0 mm 17.5 W/m2 OVC
04:24 48.9 °F /  9.4 °C 48.9 °F /  9.4 °C 29.86 in /  1011.1 hPa Calm     100 % 0.00 in /  0 mm 17.5 W/m2 OVC
04:29 48.9 °F /  9.4 °C 48.9 °F /  9.4 °C 29.86 in /  1011.1 hPa Calm     100 % 0.00 in /  0 mm 0.0 W/m2 OVC
04:34 48.9 °F /  9.4 °C 48.9 °F /  9.4 °C 29.86 in /  1011.1 hPa Calm     100 % 0.00 in /  0 mm 15.0 W/m2 OVC
04:40 48.7 °F /  9.3 °C 48.7 °F /  9.3 °C 29.87 in /  1011.4 hPa Calm     100 % 0.00 in /  0 mm 17.5 W/m2 OVC
04:45 48.7 °F /  9.3 °C 48.7 °F /  9.3 °C 29.87 in /  1011.4 hPa Calm     100 % 0.00 in /  0 mm 0.0 W/m2 OVC
04:50 48.7 °F /  9.3 °C 48.7 °F /  9.3 °C 29.87 in /  1011.4 hPa Calm     100 % 0.00 in /  0 mm 20.0 W/m2 OVC
04:55 48.7 °F /  9.3 °C 48.7 °F /  9.3 °C 29.86 in /  1011.1 hPa Calm     100 % 0.00 in /  0 mm 22.5 W/m2 OVC
05:00 48.7 °F /  9.3 °C 48.7 °F /  9.3 °C 29.86 in /  1011.1 hPa Calm     100 % 0.01 in /  0.25 mm 0.0 W/m2 RA
05:05 48.6 °F /  9.2 °C 48.6 °F /  9.2 °C 29.86 in /  1011.1 hPa West 0.1 mph /  0.2 km/h   100 % 0.01 in /  0.25 mm 17.5 W/m2 RA
05:10 48.6 °F /  9.2 °C 48.6 °F /  9.2 °C 29.86 in /  1011.1 hPa Calm     100 % 0.01 in /  0.25 mm 20.0 W/m2
05:15 48.6 °F /  9.2 °C 48.6 °F /  9.2 °C 29.86 in /  1011.1 hPa Calm     100 % 0.01 in /  0.25 mm 0.1 W/m2 OVC
05:20 48.7 °F /  9.3 °C 48.7 °F /  9.3 °C 29.86 in /  1011.1 hPa Calm     100 % 0.01 in /  0.25 mm 22.5 W/m2 OVC
05:25 48.7 °F /  9.3 °C 48.7 °F /  9.3 °C 29.86 in /  1011.1 hPa Calm     100 % 0.01 in /  0.25 mm 20.0 W/m2 OVC
05:30 48.7 °F /  9.3 °C 48.7 °F /  9.3 °C 29.86 in /  1011.1 hPa Calm     100 % 0.01 in /  0.25 mm 1.2 W/m2 OVC
05:35 48.7 °F /  9.3 °C 48.7 °F /  9.3 °C 29.86 in /  1011.1 hPa Calm     100 % 0.01 in /  0.25 mm 30.0 W/m2 OVC
05:40 48.7 °F /  9.3 °C 48.7 °F /  9.3 °C 29.86 in /  1011.1 hPa Calm     100 % 0.01 in /  0.25 mm 20.0 W/m2 OVC
05:45 48.9 °F /  9.4 °C 48.9 °F /  9.4 °C 29.86 in /  1011.1 hPa Calm     100 % 0.01 in /  0.25 mm 2.2 W/m2 OVC
05:50 48.9 °F /  9.4 °C 48.9 °F /  9.4 °C 29.86 in /  1011.1 hPa Calm     100 % 0.01 in /  0.25 mm 20.0 W/m2 OVC
05:55 48.9 °F /  9.4 °C 48.9 °F /  9.4 °C 29.87 in /  1011.4 hPa Calm     100 % 0.01 in /  0.25 mm 22.5 W/m2 OVC
06:00 48.9 °F /  9.4 °C 48.9 °F /  9.4 °C 29.86 in /  1011.1 hPa Calm     100 % 0.00 in /  0 mm 37.5 W/m2 OVC
06:05 48.9 °F /  9.4 °C 48.9 °F /  9.4 °C 29.87 in /  1011.4 hPa Calm     100 % 0.00 in /  0 mm 20.0 W/m2 OVC
06:11 48.9 °F /  9.4 °C 48.9 °F /  9.4 °C 29.87 in /  1011.4 hPa Calm     100 % 0.00 in /  0 mm 42.5 W/m2 OVC
06:16 48.9 °F /  9.4 °C 48.9 °F /  9.4 °C 29.87 in /  1011.4 hPa Calm     100 % 0.00 in /  0 mm 27.5 W/m2 OVC
06:21 48.9 °F /  9.4 °C 48.9 °F /  9.4 °C 29.87 in /  1011.4 hPa Calm     100 % 0.00 in /  0 mm 12.4 W/m2 OVC
06:26 48.9 °F /  9.4 °C 48.9 °F /  9.4 °C 29.86 in /  1011.1 hPa Calm     100 % 0.00 in /  0 mm 47.5 W/m2 OVC
06:31 49.1 °F /  9.5 °C 49.1 °F /  9.5 °C 29.86 in /  1011.1 hPa Calm     100 % 0.00 in /  0 mm 15.9 W/m2 OVC
06:36 48.9 °F /  9.4 °C 48.9 °F /  9.4 °C 29.87 in /  1011.4 hPa Calm     100 % 0.00 in /  0 mm 17.3 W/m2 OVC
06:41 48.6 °F /  9.2 °C 48.6 °F /  9.2 °C 29.87 in /  1011.4 hPa Calm     100 % 0.00 in /  0 mm 57.5 W/m2 OVC
06:46 48.6 °F /  9.2 °C 48.6 °F /  9.2 °C 29.87 in /  1011.4 hPa Calm     100 % 0.00 in /  0 mm 23.8 W/m2 OVC
06:51 48.7 °F /  9.3 °C 48.7 °F /  9.3 °C 29.87 in /  1011.4 hPa Calm     100 % 0.00 in /  0 mm 28.7 W/m2 OVC
06:56 48.6 °F /  9.2 °C 48.6 °F /  9.2 °C 29.88 in /  1011.7 hPa Calm     100 % 0.00 in /  0 mm 70.0 W/m2 OVC
07:01 48.6 °F /  9.2 °C 48.6 °F /  9.2 °C 29.88 in /  1011.7 hPa Calm     100 % 0.00 in /  0 mm 33.2 W/m2 OVC
07:06 48.6 °F /  9.2 °C 48.6 °F /  9.2 °C 29.87 in /  1011.4 hPa Calm     100 % 0.00 in /  0 mm 37.1 W/m2 OVC
07:11 48.7 °F /  9.3 °C 48.7 °F /  9.3 °C 29.88 in /  1011.7 hPa Calm     100 % 0.00 in /  0 mm 62.5 W/m2 OVC
07:16 48.7 °F /  9.3 °C 48.7 °F /  9.3 °C 29.88 in /  1011.7 hPa Calm     100 % 0.00 in /  0 mm 45.7 W/m2 OVC
07:21 48.9 °F /  9.4 °C 48.9 °F /  9.4 °C 29.88 in /  1011.7 hPa Calm     100 % 0.00 in /  0 mm 49.1 W/m2 OVC
07:26 48.9 °F /  9.4 °C 48.9 °F /  9.4 °C 29.88 in /  1011.7 hPa Calm     100 % 0.00 in /  0 mm 67.5 W/m2 OVC
07:31 48.7 °F /  9.3 °C 48.7 °F /  9.3 °C 29.88 in /  1011.7 hPa Calm     100 % 0.00 in /  0 mm 64.6 W/m2 OVC
07:36 49.1 °F /  9.5 °C 49.1 °F /  9.5 °C 29.88 in /  1011.7 hPa Calm     100 % 0.00 in /  0 mm 82.7 W/m2 OVC
07:41 49.1 °F /  9.5 °C 49.1 °F /  9.5 °C 29.88 in /  1011.7 hPa Calm     100 % 0.00 in /  0 mm 110.0 W/m2 OVC
07:46 49.3 °F /  9.6 °C 49.3 °F /  9.6 °C 29.88 in /  1011.7 hPa Calm     100 % 0.00 in /  0 mm 105.0 W/m2 OVC
07:57 49.5 °F /  9.7 °C 49.5 °F /  9.7 °C 29.88 in /  1011.7 hPa Calm     100 % 0.00 in /  0 mm 92.1 W/m2 OVC
08:02 49.6 °F /  9.8 °C 49.6 °F /  9.8 °C 29.88 in /  1011.7 hPa Calm     100 % 0.00 in /  0 mm 93.2 W/m2 OVC
08:07 49.8 °F /  9.9 °C 49.8 °F /  9.9 °C 29.88 in /  1011.7 hPa Calm     100 % 0.00 in /  0 mm 110.7 W/m2 OVC
08:12 49.8 °F /  9.9 °C 49.8 °F /  9.9 °C 29.88 in /  1011.7 hPa Calm     100 % 0.00 in /  0 mm 120.7 W/m2 OVC
08:17 50.0 °F /  10 °C 50.0 °F /  10 °C 29.87 in /  1011.4 hPa Calm     100 % 0.00 in /  0 mm 142.5 W/m2 OVC
08:22 50.2 °F /  10.1 °C 50.2 °F /  10.1 °C 29.87 in /  1011.4 hPa Calm     100 % 0.00 in /  0 mm 143.5 W/m2 OVC
08:27 50.4 °F /  10.2 °C 50.4 °F /  10.2 °C 29.88 in /  1011.7 hPa Calm     100 % 0.00 in /  0 mm 116.6 W/m2 OVC
08:32 50.4 °F /  10.2 °C 50.4 °F /  10.2 °C 29.88 in /  1011.7 hPa Calm     100 % 0.00 in /  0 mm 110.0 W/m2 OVC
08:37 50.4 °F /  10.2 °C 50.4 °F /  10.2 °C 29.88 in /  1011.7 hPa Calm     100 % 0.00 in /  0 mm 126.3 W/m2 OVC
08:42 50.4 °F /  10.2 °C 50.4 °F /  10.2 °C 29.88 in /  1011.7 hPa Calm     100 % 0.00 in /  0 mm 116.9 W/m2 OVC
08:47 50.4 °F /  10.2 °C 50.4 °F /  10.2 °C 29.88 in /  1011.7 hPa Calm     100 % 0.00 in /  0 mm 127.5 W/m2 OVC
08:52 50.4 °F /  10.2 °C 50.4 °F /  10.2 °C 29.88 in /  1011.7 hPa Calm     100 % 0.00 in /  0 mm 125.8 W/m2 OVC
08:57 50.5 °F /  10.3 °C 50.5 °F /  10.3 °C 29.88 in /  1011.7 hPa Calm     100 % 0.00 in /  0 mm 106.8 W/m2 OVC
09:02 50.4 °F /  10.2 °C 50.4 °F /  10.2 °C 29.88 in /  1011.7 hPa Calm     100 % 0.00 in /  0 mm 115.0 W/m2 OVC
09:07 50.4 °F /  10.2 °C 50.4 °F /  10.2 °C 29.88 in /  1011.7 hPa Calm     100 % 0.00 in /  0 mm 118.1 W/m2 OVC
09:12 50.5 °F /  10.3 °C 50.5 °F /  10.3 °C 29.88 in /  1011.7 hPa Calm     100 % 0.00 in /  0 mm 120.0 W/m2 OVC
09:17 50.4 °F /  10.2 °C 50.4 °F /  10.2 °C 29.88 in /  1011.7 hPa Calm     100 % 0.00 in /  0 mm 112.5 W/m2 OVC
09:22 50.4 °F /  10.2 °C 50.4 °F /  10.2 °C 29.88 in /  1011.7 hPa Calm     100 % 0.00 in /  0 mm 90.3 W/m2 OVC
09:27 50.4 °F /  10.2 °C 50.4 °F /  10.2 °C 29.88 in /  1011.7 hPa WNW 1.5 mph /  2.4 km/h 1.5 mph /  2.4 km/h 100 % 0.00 in /  0 mm 73.6 W/m2 OVC
09:33 50.2 °F /  10.1 °C 50.2 °F /  10.1 °C 29.88 in /  1011.7 hPa Calm     100 % 0.00 in /  0 mm 90.0 W/m2 OVC
09:38 50.0 °F /  10 °C 50.0 °F /  10 °C 29.88 in /  1011.7 hPa Calm     100 % 0.00 in /  0 mm 67.5 W/m2 OVC
09:43 49.8 °F /  9.9 °C 49.8 °F /  9.9 °C 29.88 in /  1011.7 hPa Calm     100 % 0.00 in /  0 mm 97.1 W/m2 OVC
09:48 50.4 °F /  10.2 °C 50.4 °F /  10.2 °C 29.88 in /  1011.7 hPa Calm     100 % 0.00 in /  0 mm 187.5 W/m2 OVC
09:53 51.3 °F /  10.7 °C 51.3 °F /  10.7 °C 29.88 in /  1011.7 hPa Calm     100 % 0.00 in /  0 mm 232.5 W/m2 OVC
09:58 51.6 °F /  10.9 °C 51.6 °F /  10.9 °C 29.88 in /  1011.7 hPa Calm     100 % 0.00 in /  0 mm 269.1 W/m2 BKN
10:03 52.0 °F /  11.1 °C 51.7 °F /  10.9 °C 29.88 in /  1011.7 hPa Calm     99 % 0.00 in /  0 mm 247.5 W/m2 BKN
10:08 52.3 °F /  11.3 °C 52.1 °F /  11.2 °C 29.88 in /  1011.7 hPa Calm     99 % 0.00 in /  0 mm 274.4 W/m2 BKN
10:13 52.5 °F /  11.4 °C 51.1 °F /  10.6 °C 29.88 in /  1011.7 hPa Calm     95 % 0.00 in /  0 mm 280.7 W/m2 BKN
10:18 52.7 °F /  11.5 °C 51.6 °F /  10.9 °C 29.88 in /  1011.7 hPa Calm     96 % 0.00 in /  0 mm 227.5 W/m2 BKN
10:23 52.9 °F /  11.6 °C 52.1 °F /  11.2 °C 29.88 in /  1011.7 hPa Calm     97 % 0.00 in /  0 mm 230.0 W/m2 BKN
10:28 52.7 °F /  11.5 °C 51.0 °F /  10.6 °C 29.88 in /  1011.7 hPa Calm     94 % 0.00 in /  0 mm 257.6 W/m2 BKN
10:33 53.1 °F /  11.7 °C 52.2 °F /  11.2 °C 29.88 in /  1011.7 hPa Calm     97 % 0.00 in /  0 mm 235.0 W/m2 BKN
10:38 53.2 °F /  11.8 °C 52.7 °F /  11.5 °C 29.88 in /  1011.7 hPa ESE 1.2 mph /  1.9 km/h   98 % 0.00 in /  0 mm 222.5 W/m2 BKN
10:43 53.1 °F /  11.7 °C 50.8 °F /  10.4 °C 29.88 in /  1011.7 hPa Calm     92 % 0.00 in /  0 mm 228.0 W/m2 BKN
10:48 53.1 °F /  11.7 °C 51.7 °F /  10.9 °C 29.88 in /  1011.7 hPa Calm     95 % 0.00 in /  0 mm 205.0 W/m2 BKN
10:53 53.2 °F /  11.8 °C 52.4 °F /  11.3 °C 29.88 in /  1011.7 hPa NW 1.4 mph /  2.3 km/h 1.4 mph /  2.3 km/h 97 % 0.00 in /  0 mm 170.0 W/m2 BKN
10:58 53.1 °F /  11.7 °C 52.0 °F /  11.1 °C 29.88 in /  1011.7 hPa Calm     96 % 0.00 in /  0 mm 240.5 W/m2 BKN
11:03 53.4 °F /  11.9 °C 52.6 °F /  11.4 °C 29.88 in /  1011.7 hPa Calm     97 % 0.00 in /  0 mm 217.5 W/m2 BKN
11:09 53.8 °F /  12.1 °C 52.1 °F /  11.2 °C 29.88 in /  1011.7 hPa Calm     94 % 0.00 in /  0 mm 220.0 W/m2 BKN
11:14 53.6 °F /  12 °C 51.9 °F /  11.1 °C 29.88 in /  1011.7 hPa Calm     94 % 0.00 in /  0 mm 275.4 W/m2 BKN
11:19 53.8 °F /  12.1 °C 52.4 °F /  11.3 °C 29.89 in /  1012.1 hPa Calm     95 % 0.00 in /  0 mm 225.0 W/m2 BKN
11:24 53.6 °F /  12 °C 50.4 °F /  10.2 °C 29.89 in /  1012.1 hPa Calm     89 % 0.00 in /  0 mm 222.5 W/m2 BKN
11:29 53.8 °F /  12.1 °C 50.3 °F /  10.2 °C 29.89 in /  1012.1 hPa Calm     88 % 0.00 in /  0 mm 293.5 W/m2 BKN
11:34 54.3 °F /  12.4 °C 52.3 °F /  11.3 °C 29.89 in /  1012.1 hPa Calm     93 % 0.00 in /  0 mm 205.0 W/m2 BKN
11:39 54.0 °F /  12.2 °C 51.4 °F /  10.8 °C 29.89 in /  1012.1 hPa Calm     91 % 0.00 in /  0 mm 180.0 W/m2 BKN
11:44 54.0 °F /  12.2 °C 52.0 °F /  11.1 °C 29.89 in /  1012.1 hPa Calm     93 % 0.00 in /  0 mm 208.3 W/m2 BKN
11:49 53.6 °F /  12 °C 51.9 °F /  11.1 °C 29.88 in /  1011.7 hPa Calm     94 % 0.00 in /  0 mm 195.8 W/m2 BKN
11:54 53.8 °F /  12.1 °C 51.8 °F /  11 °C 29.88 in /  1011.7 hPa Calm     93 % 0.00 in /  0 mm 257.5 W/m2 BKN
11:59 54.1 °F /  12.3 °C 51.9 °F /  11.1 °C 29.88 in /  1011.7 hPa Calm     92 % 0.00 in /  0 mm 175.0 W/m2 BKN
12:04 54.0 °F /  12.2 °C 50.8 °F /  10.4 °C 29.88 in /  1011.7 hPa Calm     89 % 0.00 in /  0 mm 192.5 W/m2 BKN
12:09 54.3 °F /  12.4 °C 51.7 °F /  10.9 °C 29.88 in /  1011.7 hPa Calm     91 % 0.00 in /  0 mm 267.5 W/m2 BKN
12:14 54.9 °F /  12.7 °C 52.6 °F /  11.4 °C 29.88 in /  1011.7 hPa Calm     92 % 0.00 in /  0 mm 285.0 W/m2 BKN
12:19 54.9 °F /  12.7 °C 51.4 °F /  10.8 °C 29.88 in /  1011.7 hPa Calm     88 % 0.00 in /  0 mm 212.5 W/m2 BKN
12:24 55.0 °F /  12.8 °C 51.5 °F /  10.8 °C 29.88 in /  1011.7 hPa ESE 1.2 mph /  1.9 km/h 1.2 mph /  1.9 km/h 88 % 0.00 in /  0 mm 277.5 W/m2 BKN
12:29 55.4 °F /  13 °C 52.2 °F /  11.2 °C 29.88 in /  1011.7 hPa Calm     89 % 0.00 in /  0 mm 385.5 W/m2 BKN
12:32 55.6 °F /  13.1 °C 52.4 °F /  11.3 °C 29.88 in /  1011.7 hPa Calm     89 % 0.00 in /  0 mm 385.1 W/m2 BKN
12:37 56.1 °F /  13.4 °C 52.3 °F /  11.3 °C 29.88 in /  1011.7 hPa WSW 1.2 mph /  1.9 km/h   87 % 0.00 in /  0 mm 277.5 W/m2 BKN
12:42 55.8 °F /  13.2 °C 51.3 °F /  10.7 °C 29.88 in /  1011.7 hPa Calm     85 % 0.00 in /  0 mm 215.0 W/m2 BKN
12:47 55.4 °F /  13 °C 52.2 °F /  11.2 °C 29.88 in /  1011.7 hPa Calm     89 % 0.00 in /  0 mm 307.3 W/m2 BKN
12:52 55.6 °F /  13.1 °C 51.5 °F /  10.8 °C 29.88 in /  1011.7 hPa ENE 1.0 mph /  1.6 km/h 1.0 mph /  1.6 km/h 86 % 0.00 in /  0 mm 290.0 W/m2 BKN
12:58 56.1 °F /  13.4 °C 52.0 °F /  11.1 °C 29.88 in /  1011.7 hPa West 1.5 mph /  2.4 km/h 1.5 mph /  2.4 km/h 86 % 0.00 in /  0 mm 360.0 W/m2 BKN
13:03 56.7 °F /  13.7 °C 51.6 °F /  10.9 °C 29.88 in /  1011.7 hPa Calm     83 % 0.00 in /  0 mm 432.5 W/m2 BKN
13:08 57.2 °F /  14 °C 51.4 °F /  10.8 °C 29.88 in /  1011.7 hPa WSW 2.3 mph /  3.7 km/h 2.3 mph /  3.7 km/h 81 % 0.00 in /  0 mm 335.0 W/m2 BKN
13:13 57.4 °F /  14.1 °C 51.9 °F /  11.1 °C 29.88 in /  1011.7 hPa Calm     82 % 0.00 in /  0 mm 340.0 W/m2 BKN
13:18 57.2 °F /  14 °C 49.7 °F /  9.8 °C 29.88 in /  1011.7 hPa Calm     76 % 0.00 in /  0 mm 480.0 W/m2 BKN
13:23 57.4 °F /  14.1 °C 50.6 °F /  10.3 °C 29.88 in /  1011.7 hPa SSW 1.5 mph /  2.4 km/h 1.5 mph /  2.4 km/h 78 % 0.00 in /  0 mm 342.5 W/m2 BKN
13:28 57.7 °F /  14.3 °C 52.6 °F /  11.4 °C 29.88 in /  1011.7 hPa Calm     83 % 0.00 in /  0 mm 397.5 W/m2 BKN
13:33 58.1 °F /  14.5 °C 52.0 °F /  11.1 °C 29.88 in /  1011.7 hPa Calm     80 % 0.00 in /  0 mm 519.7 W/m2 BKN
13:38 58.1 °F /  14.5 °C 50.2 °F /  10.1 °C 29.88 in /  1011.7 hPa Calm     75 % 0.00 in /  0 mm 493.8 W/m2 BKN
13:43 58.1 °F /  14.5 °C 50.6 °F /  10.3 °C 29.88 in /  1011.7 hPa Calm     76 % 0.00 in /  0 mm 467.5 W/m2 BKN
13:48 58.8 °F /  14.9 °C 49.1 °F /  9.5 °C 29.88 in /  1011.7 hPa Calm     70 % 0.00 in /  0 mm 594.4 W/m2 BKN
13:53 59.4 °F /  15.2 °C 50.3 °F /  10.2 °C 29.88 in /  1011.7 hPa NE 2.8 mph /  4.5 km/h 2.8 mph /  4.5 km/h 72 % 0.00 in /  0 mm 700.3 W/m2 FEW
13:58 59.9 °F /  15.5 °C 51.6 °F /  10.9 °C 29.88 in /  1011.7 hPa Calm     74 % 0.00 in /  0 mm 445.0 W/m2 FEW
14:03 59.9 °F /  15.5 °C 50.5 °F /  10.3 °C 29.88 in /  1011.7 hPa Calm     71 % 0.00 in /  0 mm 550.6 W/m2 SCT
14:08 60.1 °F /  15.6 °C 49.9 °F /  9.9 °C 29.88 in /  1011.7 hPa Calm     69 % 0.00 in /  0 mm 773.0 W/m2 SCT
14:13 61.0 °F /  16.1 °C 50.3 °F /  10.2 °C 29.88 in /  1011.7 hPa WNW 0.6 mph /  1 km/h 0.6 mph /  1 km/h 68 % 0.00 in /  0 mm 500.0 W/m2 FEW
14:18 61.0 °F /  16.1 °C 51.9 °F /  11.1 °C 29.88 in /  1011.7 hPa SE 1.2 mph /  1.9 km/h 1.2 mph /  1.9 km/h 72 % 0.00 in /  0 mm 678.0 W/m2 FEW
14:23 60.4 °F /  15.8 °C 50.2 °F /  10.1 °C 29.88 in /  1011.7 hPa Calm     69 % 0.00 in /  0 mm 608.3 W/m2 FEW
14:29 60.6 °F /  15.9 °C 49.6 °F /  9.8 °C 29.88 in /  1011.7 hPa West 1.2 mph /  1.9 km/h 1.2 mph /  1.9 km/h 67 % 0.00 in /  0 mm 527.5 W/m2 FEW
14:34 60.8 °F /  16 °C 48.1 °F /  8.9 °C 29.88 in /  1011.7 hPa Calm     63 % 0.00 in /  0 mm 681.5 W/m2 FEW
14:39 61.2 °F /  16.2 °C 48.0 °F /  8.9 °C 29.88 in /  1011.7 hPa Calm     62 % 0.00 in /  0 mm 721.0 W/m2 FEW
14:44 61.0 °F /  16.1 °C 47.0 °F /  8.3 °C 29.88 in /  1011.7 hPa ENE 1.2 mph /  1.9 km/h   60 % 0.00 in /  0 mm 460.0 W/m2 CLR
14:49 61.0 °F /  16.1 °C 46.1 °F /  7.8 °C 29.88 in /  1011.7 hPa SSE 1.2 mph /  1.9 km/h   58 % 0.00 in /  0 mm 529.1 W/m2 FEW
14:54 60.8 °F /  16 °C 50.2 °F /  10.1 °C 29.88 in /  1011.7 hPa WSW 1.9 mph /  3.1 km/h 1.9 mph /  3.1 km/h 68 % 0.00 in /  0 mm 512.9 W/m2 SCT
14:59 61.0 °F /  16.1 °C 50.7 °F /  10.4 °C 29.88 in /  1011.7 hPa ENE 1.1 mph /  1.8 km/h 1.1 mph /  1.8 km/h 69 % 0.00 in /  0 mm 450.0 W/m2 SCT
15:04 60.8 °F /  16 °C 50.6 °F /  10.3 °C 29.88 in /  1011.7 hPa Calm     69 % 0.00 in /  0 mm 533.0 W/m2 SCT
15:09 60.4 °F /  15.8 °C 49.8 °F /  9.9 °C 29.88 in /  1011.7 hPa East 1.2 mph /  1.9 km/h 1.2 mph /  1.9 km/h 68 % 0.00 in /  0 mm 432.2 W/m2 SCT
15:14 60.6 °F /  15.9 °C 48.4 °F /  9.1 °C 29.88 in /  1011.7 hPa ENE 1.2 mph /  1.9 km/h 1.2 mph /  1.9 km/h 64 % 0.00 in /  0 mm 412.5 W/m2 SCT
15:19 60.4 °F /  15.8 °C 49.8 °F /  9.9 °C 29.88 in /  1011.7 hPa Calm     68 % 0.00 in /  0 mm 492.7 W/m2 BKN
15:24 60.4 °F /  15.8 °C 49.4 °F /  9.7 °C 29.88 in /  1011.7 hPa WNW 0.6 mph /  1 km/h 0.6 mph /  1 km/h 67 % 0.00 in /  0 mm 370.1 W/m2 BKN
15:29 60.3 °F /  15.7 °C 46.8 °F /  8.2 °C 29.88 in /  1011.7 hPa Calm     61 % 0.00 in /  0 mm 405.0 W/m2 BKN
15:34 60.3 °F /  15.7 °C 48.4 °F /  9.1 °C 29.88 in /  1011.7 hPa SSW 1.2 mph /  1.9 km/h 1.2 mph /  1.9 km/h 65 % 0.00 in /  0 mm 410.6 W/m2 BKN
15:39 60.1 °F /  15.6 °C 48.3 °F /  9.1 °C 29.88 in /  1011.7 hPa Calm     65 % 0.00 in /  0 mm 351.1 W/m2 BKN
15:44 59.9 °F /  15.5 °C 47.3 °F /  8.5 °C 29.88 in /  1011.7 hPa Calm     63 % 0.00 in /  0 mm 368.7 W/m2 BKN
15:54 60.4 °F /  15.8 °C 47.4 °F /  8.6 °C 29.88 in /  1011.7 hPa Calm     62 % 0.00 in /  0 mm 350.1 W/m2 BKN
15:59 60.3 °F /  15.7 °C 47.6 °F /  8.7 °C 29.87 in /  1011.4 hPa Calm     63 % 0.00 in /  0 mm 326.0 W/m2 BKN
16:04 60.6 °F /  15.9 °C 48.4 °F /  9.1 °C 29.87 in /  1011.4 hPa Calm     64 % 0.00 in /  0 mm 400.0 W/m2 BKN
16:10 60.8 °F /  16 °C 49.4 °F /  9.7 °C 29.87 in /  1011.4 hPa Calm     66 % 0.00 in /  0 mm 326.2 W/m2 BKN
16:15 60.6 °F /  15.9 °C 49.6 °F /  9.8 °C 29.88 in /  1011.7 hPa Calm     67 % 0.00 in /  0 mm 296.3 W/m2 BKN
16:20 60.3 °F /  15.7 °C 48.9 °F /  9.4 °C 29.87 in /  1011.4 hPa East 3.9 mph /  6.3 km/h 3.9 mph /  6.3 km/h 66 % 0.00 in /  0 mm 342.5 W/m2 BKN
16:25 60.3 °F /  15.7 °C 49.3 °F /  9.6 °C 29.88 in /  1011.7 hPa Calm     67 % 0.00 in /  0 mm 245.1 W/m2 BKN
16:30 60.1 °F /  15.6 °C 48.7 °F /  9.3 °C 29.87 in /  1011.4 hPa NE 1.2 mph /  1.9 km/h   66 % 0.00 in /  0 mm 237.1 W/m2 BKN
16:35 59.9 °F /  15.5 °C 48.9 °F /  9.4 °C 29.87 in /  1011.4 hPa Calm     67 % 0.00 in /  0 mm 330.0 W/m2 BKN
16:40 59.9 °F /  15.5 °C 48.9 °F /  9.4 °C 29.87 in /  1011.4 hPa ENE 2.3 mph /  3.7 km/h 2.3 mph /  3.7 km/h 67 % 0.00 in /  0 mm 244.2 W/m2 BKN
16:45 59.9 °F /  15.5 °C 48.5 °F /  9.2 °C 29.86 in /  1011.1 hPa Calm     66 % 0.00 in /  0 mm 213.6 W/m2 BKN
16:50 59.9 °F /  15.5 °C 49.3 °F /  9.6 °C 29.88 in /  1011.7 hPa Calm     68 % 0.00 in /  0 mm 340.0 W/m2 BKN
16:55 59.9 °F /  15.5 °C 49.3 °F /  9.6 °C 29.88 in /  1011.7 hPa Calm     68 % 0.00 in /  0 mm 181.6 W/m2 BKN
17:00 59.9 °F /  15.5 °C 48.5 °F /  9.2 °C 29.88 in /  1011.7 hPa WSW 5.1 mph /  8.2 km/h 5.1 mph /  8.2 km/h 66 % 0.00 in /  0 mm 241.8 W/m2 BKN
17:05 60.1 °F /  15.6 °C 49.5 °F /  9.7 °C 29.88 in /  1011.7 hPa South 6.5 mph /  10.5 km/h 6.5 mph /  10.5 km/h 68 % 0.00 in /  0 mm 327.5 W/m2 BKN
17:10 59.9 °F /  15.5 °C 50.1 °F /  10.1 °C 29.88 in /  1011.7 hPa Calm     70 % 0.00 in /  0 mm 155.9 W/m2 BKN
17:20 59.7 °F /  15.4 °C 49.1 °F /  9.5 °C 29.88 in /  1011.7 hPa Calm     68 % 0.00 in /  0 mm 242.5 W/m2 BKN
17:25 59.2 °F /  15.1 °C 50.2 °F /  10.1 °C 29.88 in /  1011.7 hPa Calm     72 % 0.00 in /  0 mm 87.2 W/m2 BKN
17:30 58.8 °F /  14.9 °C 49.1 °F /  9.5 °C 29.88 in /  1011.7 hPa Calm     70 % 0.00 in /  0 mm 230.0 W/m2 BKN
17:35 58.3 °F /  14.6 °C 49.3 °F /  9.6 °C 29.88 in /  1011.7 hPa Calm     72 % 0.00 in /  0 mm 185.0 W/m2 BKN
17:40 58.1 °F /  14.5 °C 49.1 °F /  9.5 °C 29.88 in /  1011.7 hPa Calm     72 % 0.00 in /  0 mm 175.0 W/m2 BKN
17:46 57.9 °F /  14.4 °C 48.6 °F /  9.2 °C 29.88 in /  1011.7 hPa Calm     71 % 0.00 in /  0 mm 50.9 W/m2 OVC
17:51 57.6 °F /  14.2 °C 49.7 °F /  9.8 °C 29.88 in /  1011.7 hPa Calm     75 % 0.00 in /  0 mm 112.5 W/m2 OVC
17:56 57.4 °F /  14.1 °C 46.5 °F /  8.1 °C 29.88 in /  1011.7 hPa Calm     67 % 0.00 in /  0 mm 107.5 W/m2 OVC
18:01 57.2 °F /  14 °C 48.3 °F /  9.1 °C 29.88 in /  1011.7 hPa SE 0.3 mph /  0.5 km/h 0.3 mph /  0.5 km/h 72 % 0.00 in /  0 mm 127.5 W/m2 OVC
18:04 57.0 °F /  13.9 °C 49.5 °F /  9.7 °C 29.88 in /  1011.7 hPa Calm     76 % 0.00 in /  0 mm 120.0 W/m2 OVC
18:09 56.7 °F /  13.7 °C 49.9 °F /  9.9 °C 29.88 in /  1011.7 hPa WNW 3.6 mph /  5.8 km/h 3.6 mph /  5.8 km/h 78 % 0.00 in /  0 mm 140.0 W/m2 OVC
18:14 56.8 °F /  13.8 °C 49.7 °F /  9.8 °C 29.88 in /  1011.7 hPa Calm     77 % 0.00 in /  0 mm 80.1 W/m2 BKN
18:19 56.8 °F /  13.8 °C 49.7 °F /  9.8 °C 29.88 in /  1011.7 hPa ESE 5.5 mph /  8.9 km/h 5.5 mph /  8.9 km/h 77 % 0.00 in /  0 mm 155.0 W/m2 BKN
18:24 57.0 °F /  13.9 °C 48.8 °F /  9.3 °C 29.88 in /  1011.7 hPa NW 7.2 mph /  11.6 km/h 7.2 mph /  11.6 km/h 74 % 0.00 in /  0 mm 172.5 W/m2 BKN
18:29 57.0 °F /  13.9 °C 48.4 °F /  9.1 °C 29.88 in /  1011.7 hPa South 2.6 mph /  4.2 km/h 2.6 mph /  4.2 km/h 73 % 0.00 in /  0 mm 44.9 W/m2 BKN
18:34 56.8 °F /  13.8 °C 49.4 °F /  9.7 °C 29.89 in /  1012.1 hPa NW 2.3 mph /  3.7 km/h   76 % 0.00 in /  0 mm 152.5 W/m2 BKN
18:39 56.3 °F /  13.5 °C 49.2 °F /  9.6 °C 29.88 in /  1011.7 hPa Calm     77 % 0.00 in /  0 mm 175.0 W/m2 OVC
18:44 56.1 °F /  13.4 °C 48.7 °F /  9.3 °C 29.88 in /  1011.7 hPa Calm     76 % 0.00 in /  0 mm 27.2 W/m2 OVC
18:49 56.1 °F /  13.4 °C 49.0 °F /  9.4 °C 29.89 in /  1012.1 hPa South 1.5 mph /  2.4 km/h 1.5 mph /  2.4 km/h 77 % 0.00 in /  0 mm 150.0 W/m2 OVC
18:54 56.1 °F /  13.4 °C 49.7 °F /  9.8 °C 29.89 in /  1012.1 hPa Calm     79 % 0.00 in /  0 mm 152.5 W/m2 OVC
18:59 56.1 °F /  13.4 °C 50.0 °F /  10 °C 29.89 in /  1012.1 hPa Calm     80 % 0.00 in /  0 mm 21.6 W/m2 OVC
19:04 56.3 °F /  13.5 °C 49.5 °F /  9.7 °C 29.89 in /  1012.1 hPa SSW 3.9 mph /  6.3 km/h 3.9 mph /  6.3 km/h 78 % 0.00 in /  0 mm 150.0 W/m2 OVC
19:09 56.1 °F /  13.4 °C 49.4 °F /  9.7 °C 29.89 in /  1012.1 hPa SW 1.2 mph /  1.9 km/h   78 % 0.00 in /  0 mm 125.0 W/m2 OVC
19:10 56.1 °F /  13.4 °C 49.7 °F /  9.8 °C 29.89 in /  1012.1 hPa SW 4.8 mph /  7.7 km/h 4.8 mph /  7.7 km/h 79 % 0.00 in /  0 mm 132.5 W/m2 OVC
19:15 55.8 °F /  13.2 °C 49.0 °F /  9.4 °C 29.89 in /  1012.1 hPa West 1.4 mph /  2.3 km/h 1.4 mph /  2.3 km/h 78 % 0.00 in /  0 mm 115.0 W/m2 OVC
19:20 54.9 °F /  12.7 °C 49.1 °F /  9.5 °C 29.89 in /  1012.1 hPa Calm     81 % 0.00 in /  0 mm 97.5 W/m2 OVC
19:25 54.7 °F /  12.6 °C 49.0 °F /  9.4 °C 29.89 in /  1012.1 hPa WSW 1.1 mph /  1.8 km/h 1.1 mph /  1.8 km/h 81 % 0.00 in /  0 mm 97.5 W/m2 OVC
19:30 54.5 °F /  12.5 °C 49.8 °F /  9.9 °C 29.89 in /  1012.1 hPa Calm     84 % 0.00 in /  0 mm 4.4 W/m2 OVC
19:36 54.5 °F /  12.5 °C 50.1 °F /  10.1 °C 29.88 in /  1011.7 hPa Calm     85 % 0.00 in /  0 mm 90.0 W/m2 OVC
19:41 54.5 °F /  12.5 °C 50.4 °F /  10.2 °C 29.89 in /  1012.1 hPa Calm     86 % 0.00 in /  0 mm 67.5 W/m2 OVC
19:46 54.3 °F /  12.4 °C 49.9 °F /  9.9 °C 29.89 in /  1012.1 hPa Calm     85 % 0.00 in /  0 mm 1.8 W/m2 OVC
19:51 54.1 °F /  12.3 °C 49.7 °F /  9.8 °C 29.89 in /  1012.1 hPa Calm     85 % 0.00 in /  0 mm 70.0 W/m2 OVC
19:56 54.1 °F /  12.3 °C 49.1 °F /  9.5 °C 29.89 in /  1012.1 hPa Calm     83 % 0.00 in /  0 mm 55.0 W/m2 OVC
20:01 54.0 °F /  12.2 °C 49.2 °F /  9.6 °C 29.89 in /  1012.1 hPa Calm     84 % 0.00 in /  0 mm 67.5 W/m2 OVC
20:06 54.0 °F /  12.2 °C 49.6 °F /  9.8 °C 29.90 in /  1012.4 hPa SW 1.4 mph /  2.3 km/h 1.4 mph /  2.3 km/h 85 % 0.00 in /  0 mm 50.0 W/m2 OVC
20:11 53.6 °F /  12 °C 49.5 °F /  9.7 °C 29.90 in /  1012.4 hPa Calm     86 % 0.00 in /  0 mm 50.0 W/m2 OVC
20:16 53.4 °F /  11.9 °C 50.3 °F /  10.2 °C 29.89 in /  1012.1 hPa Calm     89 % 0.00 in /  0 mm 50.0 W/m2 OVC
20:21 53.1 °F /  11.7 °C 49.6 °F /  9.8 °C 29.89 in /  1012.1 hPa Calm     88 % 0.00 in /  0 mm 40.0 W/m2 OVC
20:26 52.7 °F /  11.5 °C 48.9 °F /  9.4 °C 29.89 in /  1012.1 hPa Calm     87 % 0.00 in /  0 mm 37.5 W/m2 OVC
20:31 52.3 °F /  11.3 °C 49.2 °F /  9.6 °C 29.90 in /  1012.4 hPa Calm     89 % 0.00 in /  0 mm 40.0 W/m2 OVC
20:36 52.2 °F /  11.2 °C 49.9 °F /  9.9 °C 29.90 in /  1012.4 hPa Calm     92 % 0.00 in /  0 mm 22.5 W/m2 OVC
20:41 51.8 °F /  11 °C 49.3 °F /  9.6 °C 29.90 in /  1012.4 hPa Calm     91 % 0.00 in /  0 mm 25.0 W/m2 OVC
20:46 52.2 °F /  11.2 °C 49.0 °F /  9.4 °C 29.90 in /  1012.4 hPa Calm     89 % 0.00 in /  0 mm 32.5 W/m2 OVC
20:51 52.2 °F /  11.2 °C 49.0 °F /  9.4 °C 29.90 in /  1012.4 hPa Calm     89 % 0.00 in /  0 mm 20.0 W/m2 OVC
20:56 52.0 °F /  11.1 °C 49.1 °F /  9.5 °C 29.90 in /  1012.4 hPa Calm     90 % 0.00 in /  0 mm 27.5 W/m2 OVC
21:01 51.8 °F /  11 °C 49.5 °F /  9.7 °C 29.91 in /  1012.8 hPa Calm     92 % 0.00 in /  0 mm 20.0 W/m2 OVC
21:06 51.8 °F /  11 °C 48.4 °F /  9.1 °C 29.91 in /  1012.8 hPa Calm     88 % 0.00 in /  0 mm 17.5 W/m2 OVC
21:11 51.6 °F /  10.9 °C 49.4 °F /  9.7 °C 29.91 in /  1012.8 hPa Calm     92 % 0.00 in /  0 mm 17.5 W/m2
21:17 51.6 °F /  10.9 °C 49.4 °F /  9.7 °C 29.91 in /  1012.8 hPa Calm     92 % 0.00 in /  0 mm 0.0 W/m2
21:22 51.4 °F /  10.8 °C 49.5 °F /  9.7 °C 29.91 in /  1012.8 hPa Calm     93 % 0.00 in /  0 mm 0.0 W/m2
21:27 51.3 °F /  10.7 °C 49.6 °F /  9.8 °C 29.91 in /  1012.8 hPa Calm     94 % 0.00 in /  0 mm 0.0 W/m2
21:32 50.9 °F /  10.5 °C 50.4 °F /  10.2 °C 29.91 in /  1012.8 hPa Calm     98 % 0.00 in /  0 mm 20.0 W/m2
21:37 50.9 °F /  10.5 °C 49.8 °F /  9.9 °C 29.91 in /  1012.8 hPa Calm     96 % 0.00 in /  0 mm 0.0 W/m2 CLR
21:42 50.5 °F /  10.3 °C 49.7 °F /  9.8 °C 29.91 in /  1012.8 hPa Calm     97 % 0.00 in /  0 mm 0.0 W/m2 CLR
21:47 50.4 °F /  10.2 °C 49.5 °F /  9.7 °C 29.91 in /  1012.8 hPa Calm     97 % 0.00 in /  0 mm 17.5 W/m2 CLR
21:52 50.0 °F /  10 °C 49.2 °F /  9.6 °C 29.91 in /  1012.8 hPa Calm     97 % 0.00 in /  0 mm 0.0 W/m2 CLR
21:57 50.0 °F /  10 °C 48.9 °F /  9.4 °C 29.91 in /  1012.8 hPa Calm     96 % 0.00 in /  0 mm 0.0 W/m2 CLR
22:02 49.8 °F /  9.9 °C 49.0 °F /  9.4 °C 29.91 in /  1012.8 hPa Calm     97 % 0.00 in /  0 mm 25.0 W/m2 CLR
22:07 49.6 °F /  9.8 °C 49.1 °F /  9.5 °C 29.91 in /  1012.8 hPa Calm     98 % 0.00 in /  0 mm 0.0 W/m2 CLR
22:12 49.5 °F /  9.7 °C 48.6 °F /  9.2 °C 29.92 in /  1013.1 hPa Calm     97 % 0.00 in /  0 mm 0.0 W/m2 CLR
22:17 49.3 °F /  9.6 °C 48.5 °F /  9.2 °C 29.92 in /  1013.1 hPa Calm     97 % 0.00 in /  0 mm 17.5 W/m2 CLR
22:22 49.1 °F /  9.5 °C 48.6 °F /  9.2 °C 29.92 in /  1013.1 hPa Calm     98 % 0.00 in /  0 mm 0.0 W/m2
22:27 49.1 °F /  9.5 °C 49.1 °F /  9.5 °C 29.93 in /  1013.4 hPa Calm     100 % 0.00 in /  0 mm 0.0 W/m2
22:32 49.3 °F /  9.6 °C 49.3 °F /  9.6 °C 29.92 in /  1013.1 hPa Calm     100 % 0.00 in /  0 mm 20.0 W/m2
22:37 49.1 °F /  9.5 °C 48.8 °F /  9.3 °C 29.92 in /  1013.1 hPa Calm     99 % 0.00 in /  0 mm 20.0 W/m2
22:42 49.5 °F /  9.7 °C 49.2 °F /  9.6 °C 29.91 in /  1012.8 hPa Calm     99 % 0.00 in /  0 mm 0.0 W/m2 OVC
22:47 49.5 °F /  9.7 °C 49.5 °F /  9.7 °C 29.91 in /  1012.8 hPa Calm     100 % 0.01 in /  0.25 mm 17.5 W/m2 RA
22:53 49.5 °F /  9.7 °C 49.5 °F /  9.7 °C 29.92 in /  1013.1 hPa Calm     100 % 0.01 in /  0.25 mm 20.0 W/m2 RA
22:58 49.5 °F /  9.7 °C 49.5 °F /  9.7 °C 29.92 in /  1013.1 hPa Calm     100 % 0.01 in /  0.25 mm 0.0 W/m2
23:03 49.3 °F /  9.6 °C 49.3 °F /  9.6 °C 29.91 in /  1012.8 hPa Calm     100 % 0.01 in /  0.25 mm 17.5 W/m2 OVC
23:08 49.3 °F /  9.6 °C 49.3 °F /  9.6 °C 29.92 in /  1013.1 hPa Calm     100 % 0.01 in /  0.25 mm 15.0 W/m2 OVC
23:13 49.1 °F /  9.5 °C 49.1 °F /  9.5 °C 29.92 in /  1013.1 hPa Calm     100 % 0.01 in /  0.25 mm 0.0 W/m2 OVC
23:18 49.1 °F /  9.5 °C 49.1 °F /  9.5 °C 29.92 in /  1013.1 hPa Calm     100 % 0.01 in /  0.25 mm 22.5 W/m2 OVC
23:23 49.1 °F /  9.5 °C 49.1 °F /  9.5 °C 29.92 in /  1013.1 hPa Calm     100 % 0.01 in /  0.25 mm 22.5 W/m2 OVC
23:28 49.1 °F /  9.5 °C 49.1 °F /  9.5 °C 29.92 in /  1013.1 hPa Calm     100 % 0.01 in /  0.25 mm 17.5 W/m2 OVC
23:33 48.9 °F /  9.4 °C 48.9 °F /  9.4 °C 29.92 in /  1013.1 hPa Calm     100 % 0.01 in /  0.25 mm 0.0 W/m2 OVC
23:38 48.9 °F /  9.4 °C 48.9 °F /  9.4 °C 29.93 in /  1013.4 hPa Calm     100 % 0.01 in /  0.25 mm 17.5 W/m2
23:43 48.7 °F /  9.3 °C 48.7 °F /  9.3 °C 29.93 in /  1013.4 hPa Calm     100 % 0.01 in /  0.25 mm 22.5 W/m2
23:48 48.6 °F /  9.2 °C 48.6 °F /  9.2 °C 29.92 in /  1013.1 hPa Calm     100 % 0.00 in /  0 mm 0.0 W/m2
23:53 48.2 °F /  9 °C 48.2 °F /  9 °C 29.92 in /  1013.1 hPa Calm     100 % 0.00 in /  0 mm 15.0 W/m2
23:58 48.2 °F /  9 °C 48.2 °F /  9 °C 29.93 in /  1013.4 hPa Calm     100 % 0.00 in /  0 mm 17.5 W/m2
Wether-Above
Compliments of Weather Underground - 2.25 mb
Welcome to Weather-Above
Cheddleton weather station supplies various organisations with data from our weather station one of them is the weather Underground this information displayed here is coming from the weather Underground server 

If any information is used please acknowledge the source to www weather-above.com or weather Underground